sensor_id;sensor_type;location;lat;lon;timestamp;pressure;altitude;pressure_sealevel;temperature;humidity
48862;BME280;34681;49.188;-0.374;2022-12-29T00:00:49;100130.25;;;12.64;72.47
48862;BME280;34681;49.188;-0.374;2022-12-29T00:03:14;100128.19;;;12.83;72.09
48862;BME280;34681;49.188;-0.374;2022-12-29T00:05:39;100136.22;;;12.84;71.90
48862;BME280;34681;49.188;-0.374;2022-12-29T00:08:05;100126.34;;;12.67;72.33
48862;BME280;34681;49.188;-0.374;2022-12-29T00:10:30;100138.66;;;12.71;71.91
48862;BME280;34681;49.188;-0.374;2022-12-29T00:12:55;100135.41;;;12.68;72.07
48862;BME280;34681;49.188;-0.374;2022-12-29T00:15:39;100124.09;;;12.62;72.07
48862;BME280;34681;49.188;-0.374;2022-12-29T00:18:05;100131.13;;;12.65;71.71
48862;BME280;34681;49.188;-0.374;2022-12-29T00:20:35;100124.78;;;12.64;71.54
48862;BME280;34681;49.188;-0.374;2022-12-29T00:23:20;100134.59;;;12.51;71.64
48862;BME280;34681;49.188;-0.374;2022-12-29T00:26:11;100133.88;;;12.57;71.50
48862;BME280;34681;49.188;-0.374;2022-12-29T00:28:56;100122.03;;;12.56;71.93
48862;BME280;34681;49.188;-0.374;2022-12-29T00:31:40;100137.66;;;12.48;71.58
48862;BME280;34681;49.188;-0.374;2022-12-29T00:34:24;100132.88;;;12.50;71.25
48862;BME280;34681;49.188;-0.374;2022-12-29T00:37:08;100142.81;;;12.51;71.39
48862;BME280;34681;49.188;-0.374;2022-12-29T00:39:33;100135.91;;;12.71;70.78
48862;BME280;34681;49.188;-0.374;2022-12-29T00:42:17;100130.63;;;12.61;70.44
48862;BME280;34681;49.188;-0.374;2022-12-29T00:45:01;100124.78;;;12.56;70.17
48862;BME280;34681;49.188;-0.374;2022-12-29T00:47:27;100123.28;;;12.37;70.64
48862;BME280;34681;49.188;-0.374;2022-12-29T00:49:52;100124.84;;;12.16;71.15
48862;BME280;34681;49.188;-0.374;2022-12-29T00:52:18;100111.66;;;12.11;71.42
48862;BME280;34681;49.188;-0.374;2022-12-29T00:54:43;100107.19;;;12.18;71.47
48862;BME280;34681;49.188;-0.374;2022-12-29T00:57:10;100109.22;;;12.24;71.43
48862;BME280;34681;49.188;-0.374;2022-12-29T00:59:38;100111.44;;;12.45;70.64
48862;BME280;34681;49.188;-0.374;2022-12-29T01:02:04;100101.31;;;12.46;70.44
48862;BME280;34681;49.188;-0.374;2022-12-29T01:04:30;100112.31;;;12.29;70.98
48862;BME280;34681;49.188;-0.374;2022-12-29T01:06:56;100111.81;;;12.26;70.93
48862;BME280;34681;49.188;-0.374;2022-12-29T01:09:21;100114.22;;;12.29;70.86
48862;BME280;34681;49.188;-0.374;2022-12-29T01:12:06;100109.94;;;12.18;71.26
48862;BME280;34681;49.188;-0.374;2022-12-29T01:14:32;100101.19;;;12.15;71.14
48862;BME280;34681;49.188;-0.374;2022-12-29T01:16:58;100113.34;;;12.20;71.24
48862;BME280;34681;49.188;-0.374;2022-12-29T01:19:24;100102.22;;;12.14;71.55
48862;BME280;34681;49.188;-0.374;2022-12-29T01:21:50;100112.69;;;12.02;71.95
48862;BME280;34681;49.188;-0.374;2022-12-29T01:24:17;100102.22;;;12.14;71.77
48862;BME280;34681;49.188;-0.374;2022-12-29T01:26:43;100099.66;;;12.20;71.47
48862;BME280;34681;49.188;-0.374;2022-12-29T01:29:08;100100.84;;;12.18;71.33
48862;BME280;34681;49.188;-0.374;2022-12-29T01:31:34;100113.88;;;12.16;71.46
48862;BME280;34681;49.188;-0.374;2022-12-29T01:34:00;100110.78;;;12.19;71.37
48862;BME280;34681;49.188;-0.374;2022-12-29T01:36:25;100115.75;;;12.07;71.93
48862;BME280;34681;49.188;-0.374;2022-12-29T01:38:51;100125.88;;;12.06;71.83
48862;BME280;34681;49.188;-0.374;2022-12-29T01:41:16;100117.13;;;11.95;71.81
48862;BME280;34681;49.188;-0.374;2022-12-29T01:43:54;100127.75;;;12.14;71.56
48862;BME280;34681;49.188;-0.374;2022-12-29T01:46:37;100120.91;;;12.02;71.76
48862;BME280;34681;49.188;-0.374;2022-12-29T01:49:24;100125.00;;;11.98;71.55
48862;BME280;34681;49.188;-0.374;2022-12-29T01:52:04;100127.91;;;11.96;71.73
48862;BME280;34681;49.188;-0.374;2022-12-29T01:54:34;100130.31;;;12.07;71.66
48862;BME280;34681;49.188;-0.374;2022-12-29T01:57:05;100137.84;;;11.89;72.15
48862;BME280;34681;49.188;-0.374;2022-12-29T01:59:38;100127.41;;;11.93;71.90
48862;BME280;34681;49.188;-0.374;2022-12-29T02:02:05;100132.72;;;11.94;71.78
48862;BME280;34681;49.188;-0.374;2022-12-29T02:04:32;100137.34;;;11.94;71.88
48862;BME280;34681;49.188;-0.374;2022-12-29T02:07:05;100147.97;;;11.97;71.73
48862;BME280;34681;49.188;-0.374;2022-12-29T02:09:32;100146.75;;;11.99;71.25
48862;BME280;34681;49.188;-0.374;2022-12-29T02:11:58;100144.19;;;11.98;71.18
48862;BME280;34681;49.188;-0.374;2022-12-29T02:14:24;100137.00;;;11.97;71.24
48862;BME280;34681;49.188;-0.374;2022-12-29T02:20:11;100143.47;;;11.79;71.31
48862;BME280;34681;49.188;-0.374;2022-12-29T02:31:06;100135.91;;;11.73;71.46
48862;BME280;34681;49.188;-0.374;2022-12-29T02:33:51;100145.69;;;11.68;71.75
48862;BME280;34681;49.188;-0.374;2022-12-29T02:49:42;100160.25;;;11.76;70.91
48862;BME280;34681;49.188;-0.374;2022-12-29T02:52:15;100155.44;;;11.70;71.08
48862;BME280;34681;49.188;-0.374;2022-12-29T02:54:42;100156.97;;;11.65;71.24
48862;BME280;34681;49.188;-0.374;2022-12-29T02:59:47;100168.28;;;11.70;71.00
48862;BME280;34681;49.188;-0.374;2022-12-29T03:15:55;100174.13;;;11.67;70.46
48862;BME280;34681;49.188;-0.374;2022-12-29T03:18:37;100170.84;;;11.63;70.07
48862;BME280;34681;49.188;-0.374;2022-12-29T03:24:17;100167.06;;;11.64;69.33
48862;BME280;34681;49.188;-0.374;2022-12-29T03:26:45;100175.47;;;11.63;69.11
48862;BME280;34681;49.188;-0.374;2022-12-29T03:29:13;100181.13;;;11.69;68.96
48862;BME280;34681;49.188;-0.374;2022-12-29T03:31:41;100172.91;;;11.61;69.16
48862;BME280;34681;49.188;-0.374;2022-12-29T03:34:08;100173.56;;;11.63;69.04
48862;BME280;34681;49.188;-0.374;2022-12-29T03:36:48;100174.25;;;11.57;69.10
48862;BME280;34681;49.188;-0.374;2022-12-29T03:39:16;100181.81;;;11.63;69.18
48862;BME280;34681;49.188;-0.374;2022-12-29T03:41:48;100181.97;;;11.62;68.90
48862;BME280;34681;49.188;-0.374;2022-12-29T03:44:16;100182.13;;;11.52;68.83
48862;BME280;34681;49.188;-0.374;2022-12-29T03:46:41;100190.69;;;11.65;68.49
48862;BME280;34681;49.188;-0.374;2022-12-29T03:49:06;100195.53;;;11.71;68.36
48862;BME280;34681;49.188;-0.374;2022-12-29T03:51:32;100181.94;;;11.53;68.61
48862;BME280;34681;49.188;-0.374;2022-12-29T03:53:57;100195.66;;;11.53;68.80
48862;BME280;34681;49.188;-0.374;2022-12-29T03:56:22;100192.25;;;11.60;68.50
48862;BME280;34681;49.188;-0.374;2022-12-29T03:58:48;100196.69;;;11.61;68.26
48862;BME280;34681;49.188;-0.374;2022-12-29T04:01:13;100186.19;;;11.48;68.58
48862;BME280;34681;49.188;-0.374;2022-12-29T04:03:38;100193.69;;;11.38;68.63
48862;BME280;34681;49.188;-0.374;2022-12-29T04:06:04;100200.06;;;11.46;68.68
48862;BME280;34681;49.188;-0.374;2022-12-29T04:08:30;100219.56;;;11.35;68.84
48862;BME280;34681;49.188;-0.374;2022-12-29T04:10:55;100221.41;;;11.27;69.30
48862;BME280;34681;49.188;-0.374;2022-12-29T04:13:20;100201.22;;;11.36;69.14
48862;BME280;34681;49.188;-0.374;2022-12-29T04:15:46;100226.38;;;11.31;69.38
48862;BME280;34681;49.188;-0.374;2022-12-29T04:18:12;100230.56;;;11.51;68.91
48862;BME280;34681;49.188;-0.374;2022-12-29T04:20:37;100235.72;;;11.54;68.28
48862;BME280;34681;49.188;-0.374;2022-12-29T04:23:21;100236.53;;;11.47;68.80
48862;BME280;34681;49.188;-0.374;2022-12-29T04:25:47;100239.25;;;11.39;69.04
48862;BME280;34681;49.188;-0.374;2022-12-29T04:28:13;100255.16;;;11.35;69.30
48862;BME280;34681;49.188;-0.374;2022-12-29T04:30:38;100261.19;;;11.47;69.21
48862;BME280;34681;49.188;-0.374;2022-12-29T04:33:03;100261.78;;;11.59;69.05
48862;BME280;34681;49.188;-0.374;2022-12-29T04:35:29;100258.19;;;11.66;68.52
48862;BME280;34681;49.188;-0.374;2022-12-29T04:37:54;100271.56;;;11.69;68.27
48862;BME280;34681;49.188;-0.374;2022-12-29T04:40:20;100275.13;;;11.62;68.39
48862;BME280;34681;49.188;-0.374;2022-12-29T04:42:45;100286.22;;;11.52;68.58
48862;BME280;34681;49.188;-0.374;2022-12-29T04:45:10;100298.72;;;11.54;68.56
48862;BME280;34681;49.188;-0.374;2022-12-29T04:47:36;100291.19;;;11.57;68.31
48862;BME280;34681;49.188;-0.374;2022-12-29T04:50:01;100285.84;;;11.47;68.61
48862;BME280;34681;49.188;-0.374;2022-12-29T04:52:26;100290.25;;;11.40;68.63
48862;BME280;34681;49.188;-0.374;2022-12-29T04:54:52;100286.34;;;11.16;69.07
48862;BME280;34681;49.188;-0.374;2022-12-29T04:57:17;100285.53;;;11.24;69.17
48862;BME280;34681;49.188;-0.374;2022-12-29T04:59:42;100286.69;;;11.13;69.23
48862;BME280;34681;49.188;-0.374;2022-12-29T05:02:08;100286.25;;;11.26;68.80
48862;BME280;34681;49.188;-0.374;2022-12-29T05:04:33;100284.22;;;11.02;69.47
48862;BME280;34681;49.188;-0.374;2022-12-29T05:06:59;100294.16;;;11.03;69.56
48862;BME280;34681;49.188;-0.374;2022-12-29T05:09:24;100282.81;;;10.98;69.65
48862;BME280;34681;49.188;-0.374;2022-12-29T05:11:49;100284.59;;;11.07;69.21
48862;BME280;34681;49.188;-0.374;2022-12-29T05:14:15;100289.16;;;10.98;69.58
48862;BME280;34681;49.188;-0.374;2022-12-29T05:16:40;100288.69;;;11.03;69.28
48862;BME280;34681;49.188;-0.374;2022-12-29T05:19:05;100284.00;;;10.95;69.95
48862;BME280;34681;49.188;-0.374;2022-12-29T05:21:31;100302.59;;;11.10;69.45
48862;BME280;34681;49.188;-0.374;2022-12-29T05:23:56;100292.28;;;11.04;69.44
48862;BME280;34681;49.188;-0.374;2022-12-29T05:26:21;100303.06;;;11.05;69.53
48862;BME280;34681;49.188;-0.374;2022-12-29T05:28:47;100296.50;;;10.98;69.92
48862;BME280;34681;49.188;-0.374;2022-12-29T05:31:12;100309.88;;;11.01;69.81
48862;BME280;34681;49.188;-0.374;2022-12-29T05:33:37;100319.25;;;10.98;69.84
48862;BME280;34681;49.188;-0.374;2022-12-29T05:36:04;100314.44;;;10.92;70.11
48862;BME280;34681;49.188;-0.374;2022-12-29T05:38:30;100324.66;;;10.90;70.27
48862;BME280;34681;49.188;-0.374;2022-12-29T05:40:55;100334.81;;;10.98;69.72
48862;BME280;34681;49.188;-0.374;2022-12-29T05:43:20;100332.09;;;10.98;69.87
48862;BME280;34681;49.188;-0.374;2022-12-29T05:45:48;100334.81;;;10.98;69.67
48862;BME280;34681;49.188;-0.374;2022-12-29T05:48:13;100327.69;;;11.05;69.74
48862;BME280;34681;49.188;-0.374;2022-12-29T05:50:39;100353.69;;;11.01;69.69
48862;BME280;34681;49.188;-0.374;2022-12-29T05:53:04;100333.06;;;11.15;69.26
48862;BME280;34681;49.188;-0.374;2022-12-29T05:55:29;100342.72;;;10.83;70.00
48862;BME280;34681;49.188;-0.374;2022-12-29T05:57:56;100342.28;;;10.88;70.08
48862;BME280;34681;49.188;-0.374;2022-12-29T06:00:21;100349.06;;;11.02;69.55
48862;BME280;34681;49.188;-0.374;2022-12-29T06:02:46;100349.28;;;10.90;69.80
48862;BME280;34681;49.188;-0.374;2022-12-29T06:05:12;100359.03;;;10.85;70.10
48862;BME280;34681;49.188;-0.374;2022-12-29T06:07:37;100370.75;;;10.95;69.87
48862;BME280;34681;49.188;-0.374;2022-12-29T06:10:04;100370.25;;;10.82;69.87
48862;BME280;34681;49.188;-0.374;2022-12-29T06:12:30;100385.22;;;10.87;69.69
48862;BME280;34681;49.188;-0.374;2022-12-29T06:14:55;100378.03;;;10.86;69.67
48862;BME280;34681;49.188;-0.374;2022-12-29T06:17:21;100373.16;;;10.80;69.58
48862;BME280;34681;49.188;-0.374;2022-12-29T06:19:46;100377.16;;;10.86;69.23
48862;BME280;34681;49.188;-0.374;2022-12-29T06:22:21;100379.50;;;10.81;69.60
48862;BME280;34681;49.188;-0.374;2022-12-29T06:24:50;100387.69;;;10.98;69.15
48862;BME280;34681;49.188;-0.374;2022-12-29T06:27:15;100384.44;;;10.95;69.12
48862;BME280;34681;49.188;-0.374;2022-12-29T06:29:41;100376.56;;;11.00;68.86
48862;BME280;34681;49.188;-0.374;2022-12-29T06:32:08;100393.09;;;10.90;69.10
48862;BME280;34681;49.188;-0.374;2022-12-29T06:34:33;100386.75;;;10.90;69.05
48862;BME280;34681;49.188;-0.374;2022-12-29T06:36:59;100394.28;;;10.88;69.14
48862;BME280;34681;49.188;-0.374;2022-12-29T06:39:24;100395.53;;;10.93;68.91
48862;BME280;34681;49.188;-0.374;2022-12-29T06:41:53;100405.31;;;10.96;69.10
48862;BME280;34681;49.188;-0.374;2022-12-29T06:44:20;100407.63;;;10.91;68.87
48862;BME280;34681;49.188;-0.374;2022-12-29T06:46:45;100400.94;;;10.85;68.81
48862;BME280;34681;49.188;-0.374;2022-12-29T06:49:10;100411.56;;;10.88;68.98
48862;BME280;34681;49.188;-0.374;2022-12-29T06:51:36;100409.22;;;10.93;68.56
48862;BME280;34681;49.188;-0.374;2022-12-29T06:54:01;100414.63;;;10.85;68.53
48862;BME280;34681;49.188;-0.374;2022-12-29T06:56:27;100424.38;;;10.88;68.74
48862;BME280;34681;49.188;-0.374;2022-12-29T06:58:52;100426.50;;;10.94;68.54
48862;BME280;34681;49.188;-0.374;2022-12-29T07:01:18;100432.13;;;10.92;68.23
48862;BME280;34681;49.188;-0.374;2022-12-29T07:03:43;100433.38;;;10.80;68.56
48862;BME280;34681;49.188;-0.374;2022-12-29T07:06:08;100435.00;;;10.91;68.40
48862;BME280;34681;49.188;-0.374;2022-12-29T07:08:34;100437.44;;;10.94;68.35
48862;BME280;34681;49.188;-0.374;2022-12-29T07:10:59;100436.97;;;10.98;68.15
48862;BME280;34681;49.188;-0.374;2022-12-29T07:13:25;100440.28;;;10.84;67.89
48862;BME280;34681;49.188;-0.374;2022-12-29T07:15:50;100443.63;;;10.78;68.38
48862;BME280;34681;49.188;-0.374;2022-12-29T07:18:16;100431.91;;;10.86;68.33
48862;BME280;34681;49.188;-0.374;2022-12-29T07:20:41;100438.00;;;10.80;68.56
48862;BME280;34681;49.188;-0.374;2022-12-29T07:23:07;100433.38;;;10.80;68.44
48862;BME280;34681;49.188;-0.374;2022-12-29T07:25:32;100446.59;;;10.85;68.32
48862;BME280;34681;49.188;-0.374;2022-12-29T07:27:57;100444.78;;;10.76;68.33
48862;BME280;34681;49.188;-0.374;2022-12-29T07:30:23;100441.34;;;10.91;68.03
48862;BME280;34681;49.188;-0.374;2022-12-29T07:32:48;100448.84;;;10.89;67.84
48862;BME280;34681;49.188;-0.374;2022-12-29T07:35:13;100454.56;;;10.60;68.62
48862;BME280;34681;49.188;-0.374;2022-12-29T07:37:39;100457.28;;;10.60;68.64
48862;BME280;34681;49.188;-0.374;2022-12-29T07:40:05;100456.19;;;10.71;68.69
48862;BME280;34681;49.188;-0.374;2022-12-29T07:42:31;100457.63;;;10.48;69.19
48862;BME280;34681;49.188;-0.374;2022-12-29T07:44:56;100465.53;;;10.51;69.24
48862;BME280;34681;49.188;-0.374;2022-12-29T07:47:22;100461.91;;;10.60;68.98
48862;BME280;34681;49.188;-0.374;2022-12-29T07:49:47;100473.69;;;10.60;68.76
48862;BME280;34681;49.188;-0.374;2022-12-29T07:52:12;100468.78;;;10.64;69.10
48862;BME280;34681;49.188;-0.374;2022-12-29T07:54:38;100470.22;;;10.58;69.00
48862;BME280;34681;49.188;-0.374;2022-12-29T07:57:04;100476.19;;;10.54;68.93
48862;BME280;34681;49.188;-0.374;2022-12-29T07:59:29;100483.53;;;10.53;69.03
48862;BME280;34681;49.188;-0.374;2022-12-29T08:01:55;100472.00;;;10.59;68.99
48862;BME280;34681;49.188;-0.374;2022-12-29T08:04:20;100493.03;;;10.77;68.48
48862;BME280;34681;49.188;-0.374;2022-12-29T08:06:46;100488.56;;;10.76;68.47
48862;BME280;34681;49.188;-0.374;2022-12-29T08:09:11;100491.84;;;10.61;68.32
48862;BME280;34681;49.188;-0.374;2022-12-29T08:11:37;100495.06;;;10.47;69.01
48862;BME280;34681;49.188;-0.374;2022-12-29T08:14:03;100511.94;;;10.70;68.47
48862;BME280;34681;49.188;-0.374;2022-12-29T08:16:28;100519.28;;;10.69;68.58
48862;BME280;34681;49.188;-0.374;2022-12-29T08:18:54;100520.16;;;10.70;68.58
48862;BME280;34681;49.188;-0.374;2022-12-29T08:21:19;100524.19;;;10.66;68.42
48862;BME280;34681;49.188;-0.374;2022-12-29T08:23:45;100529.81;;;10.64;68.65
48862;BME280;34681;49.188;-0.374;2022-12-29T08:26:10;100520.31;;;10.68;68.08
48862;BME280;34681;49.188;-0.374;2022-12-29T08:28:36;100529.06;;;10.72;68.58
48862;BME280;34681;49.188;-0.374;2022-12-29T08:31:02;100531.38;;;10.67;68.28
48862;BME280;34681;49.188;-0.374;2022-12-29T08:33:28;100533.31;;;10.84;67.69
48862;BME280;34681;49.188;-0.374;2022-12-29T08:36:05;100545.50;;;10.90;67.28
48862;BME280;34681;49.188;-0.374;2022-12-29T08:38:32;100548.09;;;10.91;67.25
48862;BME280;34681;49.188;-0.374;2022-12-29T08:40:59;100548.63;;;10.77;67.91
48862;BME280;34681;49.188;-0.374;2022-12-29T08:43:26;100555.06;;;10.86;67.68
48862;BME280;34681;49.188;-0.374;2022-12-29T08:45:52;100557.50;;;11.07;66.98
48862;BME280;34681;49.188;-0.374;2022-12-29T08:48:17;100555.44;;;11.18;66.67
48862;BME280;34681;49.188;-0.374;2022-12-29T08:50:45;100572.47;;;11.30;66.28
48862;BME280;34681;49.188;-0.374;2022-12-29T08:53:10;100573.88;;;11.16;66.39
48862;BME280;34681;49.188;-0.374;2022-12-29T08:55:36;100576.25;;;11.29;66.31
48862;BME280;34681;49.188;-0.374;2022-12-29T08:58:01;100586.75;;;11.34;66.04
48862;BME280;34681;49.188;-0.374;2022-12-29T09:00:26;100584.63;;;11.28;66.14
48862;BME280;34681;49.188;-0.374;2022-12-29T09:02:52;100589.06;;;11.29;66.11
48862;BME280;34681;49.188;-0.374;2022-12-29T09:05:17;100590.78;;;11.30;65.75
48862;BME280;34681;49.188;-0.374;2022-12-29T09:07:42;100593.31;;;11.59;65.61
48862;BME280;34681;49.188;-0.374;2022-12-29T09:10:08;100599.91;;;11.84;64.62
48862;BME280;34681;49.188;-0.374;2022-12-29T09:12:34;100594.63;;;11.72;64.75
48862;BME280;34681;49.188;-0.374;2022-12-29T09:14:59;100598.16;;;11.65;64.44
48862;BME280;34681;49.188;-0.374;2022-12-29T09:17:24;100599.41;;;11.70;64.89
48862;BME280;34681;49.188;-0.374;2022-12-29T09:20:09;100619.00;;;11.93;64.18
48862;BME280;34681;49.188;-0.374;2022-12-29T09:22:35;100613.19;;;11.96;64.01
48862;BME280;34681;49.188;-0.374;2022-12-29T09:25:00;100614.22;;;11.77;64.31
48862;BME280;34681;49.188;-0.374;2022-12-29T09:27:26;100617.81;;;11.42;65.29
48862;BME280;34681;49.188;-0.374;2022-12-29T09:29:51;100619.75;;;11.32;66.06
48862;BME280;34681;49.188;-0.374;2022-12-29T09:32:17;100618.44;;;11.36;66.12
48862;BME280;34681;49.188;-0.374;2022-12-29T09:34:42;100616.31;;;11.30;65.92
48862;BME280;34681;49.188;-0.374;2022-12-29T09:37:07;100622.97;;;11.45;65.91
48862;BME280;34681;49.188;-0.374;2022-12-29T09:39:33;100626.22;;;11.59;65.47
48862;BME280;34681;49.188;-0.374;2022-12-29T09:47:13;100640.19;;;11.73;65.46
48862;BME280;34681;49.188;-0.374;2022-12-29T09:52:13;100645.53;;;11.75;65.29
48862;BME280;34681;49.188;-0.374;2022-12-29T09:54:44;100646.94;;;11.79;65.45
48862;BME280;34681;49.188;-0.374;2022-12-29T09:57:18;100647.28;;;11.94;65.06
48862;BME280;34681;49.188;-0.374;2022-12-29T09:59:46;100651.84;;;11.85;65.25
48862;BME280;34681;49.188;-0.374;2022-12-29T10:02:34;100651.84;;;11.85;65.02
48862;BME280;34681;49.188;-0.374;2022-12-29T10:05:02;100650.88;;;11.76;65.44
48862;BME280;34681;49.188;-0.374;2022-12-29T10:10:23;100645.88;;;11.90;64.56
48862;BME280;34681;49.188;-0.374;2022-12-29T10:13:08;100650.13;;;11.84;64.49
48862;BME280;34681;49.188;-0.374;2022-12-29T10:15:47;100642.78;;;11.75;64.76
48862;BME280;34681;49.188;-0.374;2022-12-29T10:20:51;100666.72;;;12.00;64.12
48862;BME280;34681;49.188;-0.374;2022-12-29T10:25:50;100656.44;;;12.02;64.05
48862;BME280;34681;49.188;-0.374;2022-12-29T10:28:21;100663.34;;;11.89;64.15
48862;BME280;34681;49.188;-0.374;2022-12-29T10:30:48;100667.19;;;11.96;64.17
48862;BME280;34681;49.188;-0.374;2022-12-29T10:33:30;100654.81;;;12.09;63.80
48862;BME280;34681;49.188;-0.374;2022-12-29T10:35:57;100656.53;;;11.93;63.84
48862;BME280;34681;49.188;-0.374;2022-12-29T10:38:40;100649.88;;;11.95;64.20
48862;BME280;34681;49.188;-0.374;2022-12-29T10:41:15;100653.88;;;12.01;63.99
48862;BME280;34681;49.188;-0.374;2022-12-29T10:43:48;100658.47;;;12.18;63.55
48862;BME280;34681;49.188;-0.374;2022-12-29T10:46:37;100654.88;;;12.18;63.42
48862;BME280;34681;49.188;-0.374;2022-12-29T10:49:04;100656.59;;;12.19;63.90
48862;BME280;34681;49.188;-0.374;2022-12-29T10:51:35;100655.97;;;12.25;63.46
48862;BME280;34681;49.188;-0.374;2022-12-29T10:56:49;100654.88;;;12.18;62.41
48862;BME280;34681;49.188;-0.374;2022-12-29T10:59:31;100658.69;;;12.25;62.39
48862;BME280;34681;49.188;-0.374;2022-12-29T11:07:05;100665.97;;;12.16;61.61
48862;BME280;34681;49.188;-0.374;2022-12-29T11:09:34;100662.59;;;12.22;61.95
48862;BME280;34681;49.188;-0.374;2022-12-29T11:12:00;100673.97;;;12.27;61.98
48862;BME280;34681;49.188;-0.374;2022-12-29T11:14:28;100665.88;;;12.44;61.48
48862;BME280;34681;49.188;-0.374;2022-12-29T11:17:04;100671.81;;;12.65;60.86
48862;BME280;34681;49.188;-0.374;2022-12-29T11:19:32;100664.84;;;12.45;61.16
48862;BME280;34681;49.188;-0.374;2022-12-29T11:22:27;100659.41;;;12.53;60.75
48862;BME280;34681;49.188;-0.374;2022-12-29T11:24:54;100656.94;;;12.42;60.94
48862;BME280;34681;49.188;-0.374;2022-12-29T11:27:29;100661.88;;;12.38;60.89
48862;BME280;34681;49.188;-0.374;2022-12-29T11:29:55;100657.03;;;12.58;60.58
48862;BME280;34681;49.188;-0.374;2022-12-29T11:32:23;100658.34;;;12.80;60.21
48862;BME280;34681;49.188;-0.374;2022-12-29T11:34:49;100666.41;;;12.81;59.98
48862;BME280;34681;49.188;-0.374;2022-12-29T11:37:31;100665.22;;;12.76;59.67
48862;BME280;34681;49.188;-0.374;2022-12-29T11:40:05;100671.06;;;12.81;59.60
48862;BME280;34681;49.188;-0.374;2022-12-29T11:42:58;100679.63;;;12.78;59.44
48862;BME280;34681;49.188;-0.374;2022-12-29T11:45:25;100664.72;;;12.80;59.58
48862;BME280;34681;49.188;-0.374;2022-12-29T11:47:54;100674.13;;;12.78;59.54
48862;BME280;34681;49.188;-0.374;2022-12-29T11:50:27;100674.72;;;12.63;59.65
48862;BME280;34681;49.188;-0.374;2022-12-29T11:53:03;100670.84;;;12.74;59.46
48862;BME280;34681;49.188;-0.374;2022-12-29T11:55:30;100674.22;;;12.60;59.19
48862;BME280;34681;49.188;-0.374;2022-12-29T11:57:58;100684.38;;;12.68;59.57
48862;BME280;34681;49.188;-0.374;2022-12-29T12:00:30;100691.53;;;12.86;59.39
48862;BME280;34681;49.188;-0.374;2022-12-29T12:03:00;100694.31;;;12.94;59.12
48862;BME280;34681;49.188;-0.374;2022-12-29T12:08:21;100703.44;;;12.69;59.29
48862;BME280;34681;49.188;-0.374;2022-12-29T12:10:58;100701.88;;;12.67;59.72
48862;BME280;34681;49.188;-0.374;2022-12-29T12:13:37;100700.84;;;12.68;59.17
48862;BME280;34681;49.188;-0.374;2022-12-29T12:16:18;100709.28;;;12.74;59.25
48862;BME280;34681;49.188;-0.374;2022-12-29T12:21:56;100706.75;;;12.81;58.75
48862;BME280;34681;49.188;-0.374;2022-12-29T12:27:12;100703.44;;;12.69;58.86
48862;BME280;34681;49.188;-0.374;2022-12-29T12:30:14;100696.97;;;12.78;58.92
48862;BME280;34681;49.188;-0.374;2022-12-29T12:32:48;100703.69;;;12.84;59.19
48862;BME280;34681;49.188;-0.374;2022-12-29T12:35:23;100691.03;;;12.91;59.28
48862;BME280;34681;49.188;-0.374;2022-12-29T12:38:06;100687.38;;;12.82;59.25
48862;BME280;34681;49.188;-0.374;2022-12-29T12:41:05;100695.72;;;12.73;59.13
48862;BME280;34681;49.188;-0.374;2022-12-29T12:47:07;100685.72;;;12.63;60.13
48862;BME280;34681;49.188;-0.374;2022-12-29T13:00:15;100695.19;;;12.69;59.66
48862;BME280;34681;49.188;-0.374;2022-12-29T13:11:01;100703.97;;;13.07;58.80
48862;BME280;34681;49.188;-0.374;2022-12-29T13:13:38;100707.28;;;13.10;58.46
48862;BME280;34681;49.188;-0.374;2022-12-29T13:19:15;100703.50;;;13.11;58.21
48862;BME280;34681;49.188;-0.374;2022-12-29T13:21:59;100699.00;;;13.02;58.08
48862;BME280;34681;49.188;-0.374;2022-12-29T13:30:12;100699.69;;;13.04;58.40
48862;BME280;34681;49.188;-0.374;2022-12-29T13:40:32;100682.16;;;13.05;57.88
48862;BME280;34681;49.188;-0.374;2022-12-29T13:43:01;100684.53;;;12.92;58.14
48862;BME280;34681;49.188;-0.374;2022-12-29T13:45:29;100680.19;;;12.89;58.08
48862;BME280;34681;49.188;-0.374;2022-12-29T13:50:36;100695.41;;;12.76;58.42
48862;BME280;34681;49.188;-0.374;2022-12-29T13:53:19;100705.34;;;13.03;57.84
48862;BME280;34681;49.188;-0.374;2022-12-29T13:58:24;100707.41;;;13.01;58.13
48862;BME280;34681;49.188;-0.374;2022-12-29T14:01:10;100694.28;;;12.86;57.91
48862;BME280;34681;49.188;-0.374;2022-12-29T14:04:00;100697.06;;;12.94;57.70
48862;BME280;34681;49.188;-0.374;2022-12-29T14:06:34;100700.19;;;13.00;57.22
48862;BME280;34681;49.188;-0.374;2022-12-29T14:09:34;100699.16;;;13.01;57.52
48862;BME280;34681;49.188;-0.374;2022-12-29T14:11:51;100692.44;;;12.95;57.69
48862;BME280;34681;49.188;-0.374;2022-12-29T14:14:25;100698.06;;;13.19;57.25
48862;BME280;34681;49.188;-0.374;2022-12-29T14:16:53;100709.81;;;13.04;57.23
48862;BME280;34681;49.188;-0.374;2022-12-29T14:19:39;100708.59;;;13.06;57.70
48862;BME280;34681;49.188;-0.374;2022-12-29T14:22:07;100713.38;;;12.96;57.89
48862;BME280;34681;49.188;-0.374;2022-12-29T14:29:47;100721.09;;;12.67;58.13
48862;BME280;34681;49.188;-0.374;2022-12-29T14:34:58;100722.06;;;12.83;58.00
48862;BME280;34681;49.188;-0.374;2022-12-29T14:37:25;100727.00;;;12.80;58.24
48862;BME280;34681;49.188;-0.374;2022-12-29T14:40:19;100714.47;;;12.77;57.80
48862;BME280;34681;49.188;-0.374;2022-12-29T14:42:49;100721.84;;;12.77;58.13
48862;BME280;34681;49.188;-0.374;2022-12-29T14:47:49;100710.63;;;12.70;58.29
48862;BME280;34681;49.188;-0.374;2022-12-29T14:50:23;100711.72;;;12.77;57.96
48862;BME280;34681;49.188;-0.374;2022-12-29T14:52:58;100719.91;;;12.69;57.94
48862;BME280;34681;49.188;-0.374;2022-12-29T14:55:38;100723.00;;;12.74;57.98
48862;BME280;34681;49.188;-0.374;2022-12-29T14:58:15;100713.66;;;12.85;58.01
48862;BME280;34681;49.188;-0.374;2022-12-29T15:00:42;100711.31;;;12.98;57.79
48862;BME280;34681;49.188;-0.374;2022-12-29T15:03:17;100722.91;;;12.84;58.07